sensor_id;sensor_type;location;lat;lon;timestamp;pressure;altitude;pressure_sealevel;temperature
61977;BMP280;45905;50.570;10.428;2022-10-16T00:01:40;97661.25;;;16.10
61977;BMP280;45905;50.570;10.428;2022-10-16T00:04:09;97676.78;;;16.09
61977;BMP280;45905;50.570;10.428;2022-10-16T00:06:37;97671.66;;;16.09
61977;BMP280;45905;50.570;10.428;2022-10-16T00:09:05;97662.59;;;16.06
61977;BMP280;45905;50.570;10.428;2022-10-16T00:11:36;97678.50;;;16.02
61977;BMP280;45905;50.570;10.428;2022-10-16T00:14:10;97678.50;;;16.02
61977;BMP280;45905;50.570;10.428;2022-10-16T00:16:38;97684.00;;;15.99
61977;BMP280;45905;50.570;10.428;2022-10-16T00:19:05;97674.59;;;16.00
61977;BMP280;45905;50.570;10.428;2022-10-16T00:21:33;97663.59;;;15.99
61977;BMP280;45905;50.570;10.428;2022-10-16T00:24:07;97670.44;;;15.99
61977;BMP280;45905;50.570;10.428;2022-10-16T00:26:37;97668.88;;;15.98
61977;BMP280;45905;50.570;10.428;2022-10-16T00:29:05;97664.56;;;15.98
61977;BMP280;45905;50.570;10.428;2022-10-16T00:31:33;97659.59;;;15.97
61977;BMP280;45905;50.570;10.428;2022-10-16T00:34:00;97669.22;;;15.95
61977;BMP280;45905;50.570;10.428;2022-10-16T00:36:27;97681.22;;;15.94
61977;BMP280;45905;50.570;10.428;2022-10-16T00:38:57;97679.63;;;15.93
61977;BMP280;45905;50.570;10.428;2022-10-16T00:41:27;97672.97;;;15.92
61977;BMP280;45905;50.570;10.428;2022-10-16T00:44:01;97666.28;;;15.91
61977;BMP280;45905;50.570;10.428;2022-10-16T00:46:38;97665.69;;;15.89
61977;BMP280;45905;50.570;10.428;2022-10-16T00:49:16;97675.31;;;15.87
61977;BMP280;45905;50.570;10.428;2022-10-16T00:51:51;97685.50;;;15.87
61977;BMP280;45905;50.570;10.428;2022-10-16T00:54:31;97674.91;;;15.84
61977;BMP280;45905;50.570;10.428;2022-10-16T00:57:05;97676.06;;;15.82
61977;BMP280;45905;50.570;10.428;2022-10-16T00:59:38;97684.72;;;15.81
61977;BMP280;45905;50.570;10.428;2022-10-16T01:02:09;97674.88;;;15.78
61977;BMP280;45905;50.570;10.428;2022-10-16T01:04:52;97692.16;;;15.76
61977;BMP280;45905;50.570;10.428;2022-10-16T01:07:44;97701.00;;;15.73
61977;BMP280;45905;50.570;10.428;2022-10-16T01:10:40;97698.03;;;15.70
61977;BMP280;45905;50.570;10.428;2022-10-16T01:13:18;97699.78;;;15.69
61977;BMP280;45905;50.570;10.428;2022-10-16T01:16:02;97695.84;;;15.67
61977;BMP280;45905;50.570;10.428;2022-10-16T01:18:46;97699.19;;;15.67
61977;BMP280;45905;50.570;10.428;2022-10-16T01:21:30;97703.13;;;15.64
61977;BMP280;45905;50.570;10.428;2022-10-16T01:24:17;97703.91;;;15.64
61977;BMP280;45905;50.570;10.428;2022-10-16T01:35:10;97716.06;;;15.56
61977;BMP280;45905;50.570;10.428;2022-10-16T01:37:47;97719.56;;;15.55
61977;BMP280;45905;50.570;10.428;2022-10-16T01:40:18;97712.91;;;15.54
61977;BMP280;45905;50.570;10.428;2022-10-16T01:42:53;97708.94;;;15.51
61977;BMP280;45905;50.570;10.428;2022-10-16T01:45:21;97697.94;;;15.51
61977;BMP280;45905;50.570;10.428;2022-10-16T01:47:50;97711.69;;;15.50
61977;BMP280;45905;50.570;10.428;2022-10-16T01:50:21;97712.47;;;15.50
61977;BMP280;45905;50.570;10.428;2022-10-16T01:52:51;97709.91;;;15.50
61977;BMP280;45905;50.570;10.428;2022-10-16T01:55:29;97700.69;;;15.49
61977;BMP280;45905;50.570;10.428;2022-10-16T01:58:01;97696.59;;;15.48
61977;BMP280;45905;50.570;10.428;2022-10-16T02:00:30;97696.75;;;15.47
61977;BMP280;45905;50.570;10.428;2022-10-16T02:03:01;97704.25;;;15.48
61977;BMP280;45905;50.570;10.428;2022-10-16T02:05:40;97707.59;;;15.49
61977;BMP280;45905;50.570;10.428;2022-10-16T02:08:09;97711.91;;;15.48
61977;BMP280;45905;50.570;10.428;2022-10-16T02:10:37;97720.53;;;15.47
61977;BMP280;45905;50.570;10.428;2022-10-16T02:13:09;97717.19;;;15.47
61977;BMP280;45905;50.570;10.428;2022-10-16T02:15:37;97717.19;;;15.47
61977;BMP280;45905;50.570;10.428;2022-10-16T02:18:06;97714.44;;;15.48
61977;BMP280;45905;50.570;10.428;2022-10-16T02:20:53;97722.91;;;15.49
61977;BMP280;45905;50.570;10.428;2022-10-16T02:23:42;97725.44;;;15.49
61977;BMP280;45905;50.570;10.428;2022-10-16T02:26:17;97722.28;;;15.47
61977;BMP280;45905;50.570;10.428;2022-10-16T02:28:53;97715.44;;;15.47
61977;BMP280;45905;50.570;10.428;2022-10-16T02:31:27;97706.19;;;15.46
61977;BMP280;45905;50.570;10.428;2022-10-16T02:33:59;97711.28;;;15.46
61977;BMP280;45905;50.570;10.428;2022-10-16T02:36:27;97719.94;;;15.46
61977;BMP280;45905;50.570;10.428;2022-10-16T02:38:55;97723.88;;;15.48
61977;BMP280;45905;50.570;10.428;2022-10-16T02:41:23;97711.28;;;15.46
61977;BMP280;45905;50.570;10.428;2022-10-16T02:43:50;97703.81;;;15.45
61977;BMP280;45905;50.570;10.428;2022-10-16T02:46:18;97704.41;;;15.47
61977;BMP280;45905;50.570;10.428;2022-10-16T02:48:45;97710.31;;;15.47
61977;BMP280;45905;50.570;10.428;2022-10-16T02:51:12;97723.66;;;15.49
61977;BMP280;45905;50.570;10.428;2022-10-16T02:53:40;97720.13;;;15.50
61977;BMP280;45905;50.570;10.428;2022-10-16T02:56:07;97722.50;;;15.52
61977;BMP280;45905;50.570;10.428;2022-10-16T02:58:34;97721.53;;;15.53
61977;BMP280;45905;50.570;10.428;2022-10-16T03:01:01;97731.72;;;15.53
61977;BMP280;45905;50.570;10.428;2022-10-16T03:03:28;97729.97;;;15.53
61977;BMP280;45905;50.570;10.428;2022-10-16T03:05:55;97734.91;;;15.55
61977;BMP280;45905;50.570;10.428;2022-10-16T03:08:22;97734.72;;;15.56
61977;BMP280;45905;50.570;10.428;2022-10-16T03:10:52;97732.94;;;15.57
61977;BMP280;45905;50.570;10.428;2022-10-16T03:13:19;97726.88;;;15.58
61977;BMP280;45905;50.570;10.428;2022-10-16T03:15:47;97729.19;;;15.59
61977;BMP280;45905;50.570;10.428;2022-10-16T03:18:14;97725.69;;;15.60
61977;BMP280;45905;50.570;10.428;2022-10-16T03:20:43;97737.47;;;15.61
61977;BMP280;45905;50.570;10.428;2022-10-16T03:23:10;97730.59;;;15.62
61977;BMP280;45905;50.570;10.428;2022-10-16T03:25:37;97732.97;;;15.63
61977;BMP280;45905;50.570;10.428;2022-10-16T03:28:05;97742.22;;;15.64
61977;BMP280;45905;50.570;10.428;2022-10-16T03:30:32;97747.13;;;15.65
61977;BMP280;45905;50.570;10.428;2022-10-16T03:32:59;97744.38;;;15.67
61977;BMP280;45905;50.570;10.428;2022-10-16T03:35:26;97747.91;;;15.66
61977;BMP280;45905;50.570;10.428;2022-10-16T03:37:54;97734.94;;;15.67
61977;BMP280;45905;50.570;10.428;2022-10-16T03:40:21;97734.94;;;15.67
61977;BMP280;45905;50.570;10.428;2022-10-16T03:42:48;97730.63;;;15.68
61977;BMP280;45905;50.570;10.428;2022-10-16T03:45:15;97738.88;;;15.70
61977;BMP280;45905;50.570;10.428;2022-10-16T03:47:42;97743.19;;;15.69
61977;BMP280;45905;50.570;10.428;2022-10-16T03:50:09;97744.78;;;15.70
61977;BMP280;45905;50.570;10.428;2022-10-16T03:52:37;97743.81;;;15.71
61977;BMP280;45905;50.570;10.428;2022-10-16T03:55:04;97737.91;;;15.71
61977;BMP280;45905;50.570;10.428;2022-10-16T03:57:31;97742.03;;;15.72
61977;BMP280;45905;50.570;10.428;2022-10-16T03:59:59;97747.34;;;15.70
61977;BMP280;45905;50.570;10.428;2022-10-16T04:02:26;97757.38;;;15.72
61977;BMP280;45905;50.570;10.428;2022-10-16T04:04:53;97752.25;;;15.72
61977;BMP280;45905;50.570;10.428;2022-10-16T04:07:20;97750.50;;;15.72
61977;BMP280;45905;50.570;10.428;2022-10-16T04:09:47;97753.06;;;15.72
61977;BMP280;45905;50.570;10.428;2022-10-16T04:12:14;97758.94;;;15.73
61977;BMP280;45905;50.570;10.428;2022-10-16T04:14:41;97775.84;;;15.74
61977;BMP280;45905;50.570;10.428;2022-10-16T04:17:08;97765.63;;;15.74
61977;BMP280;45905;50.570;10.428;2022-10-16T04:19:35;97772.50;;;15.73
61977;BMP280;45905;50.570;10.428;2022-10-16T04:22:02;97773.28;;;15.74
61977;BMP280;45905;50.570;10.428;2022-10-16T04:24:29;97778.41;;;15.74
61977;BMP280;45905;50.570;10.428;2022-10-16T04:26:56;97784.09;;;15.76
61977;BMP280;45905;50.570;10.428;2022-10-16T04:29:23;97784.88;;;15.76
61977;BMP280;45905;50.570;10.428;2022-10-16T04:31:51;97782.72;;;15.73
61977;BMP280;45905;50.570;10.428;2022-10-16T04:34:18;97790.19;;;15.75
61977;BMP280;45905;50.570;10.428;2022-10-16T04:36:48;97787.81;;;15.73
61977;BMP280;45905;50.570;10.428;2022-10-16T04:39:16;97788.63;;;15.74
61977;BMP280;45905;50.570;10.428;2022-10-16T04:41:44;97787.03;;;15.73
61977;BMP280;45905;50.570;10.428;2022-10-16T04:44:11;97796.63;;;15.71
61977;BMP280;45905;50.570;10.428;2022-10-16T04:46:38;97801.75;;;15.71
61977;BMP280;45905;50.570;10.428;2022-10-16T04:49:05;97806.50;;;15.74
61977;BMP280;45905;50.570;10.428;2022-10-16T04:51:32;97809.41;;;15.71
61977;BMP280;45905;50.570;10.428;2022-10-16T04:53:59;97819.63;;;15.71
61977;BMP280;45905;50.570;10.428;2022-10-16T04:56:26;97811.19;;;15.70
61977;BMP280;45905;50.570;10.428;2022-10-16T04:58:53;97812.94;;;15.70
61977;BMP280;45905;50.570;10.428;2022-10-16T05:01:20;97805.47;;;15.68
61977;BMP280;45905;50.570;10.428;2022-10-16T05:03:47;97811.53;;;15.67
61977;BMP280;45905;50.570;10.428;2022-10-16T05:06:14;97821.38;;;15.64
61977;BMP280;45905;50.570;10.428;2022-10-16T05:08:42;97829.03;;;15.64
61977;BMP280;45905;50.570;10.428;2022-10-16T05:11:09;97828.22;;;15.64
61977;BMP280;45905;50.570;10.428;2022-10-16T05:13:36;97833.38;;;15.70
61977;BMP280;45905;50.570;10.428;2022-10-16T05:16:03;97833.97;;;15.72
61977;BMP280;45905;50.570;10.428;2022-10-16T05:18:30;97828.06;;;15.71
61977;BMP280;45905;50.570;10.428;2022-10-16T05:20:57;97841.03;;;15.70
61977;BMP280;45905;50.570;10.428;2022-10-16T05:23:24;97833.38;;;15.70
61977;BMP280;45905;50.570;10.428;2022-10-16T05:25:55;97844.38;;;15.70
61977;BMP280;45905;50.570;10.428;2022-10-16T05:28:27;97837.50;;;15.71
61977;BMP280;45905;50.570;10.428;2022-10-16T05:30:55;97830.81;;;15.70
61977;BMP280;45905;50.570;10.428;2022-10-16T05:33:25;97833.38;;;15.70
61977;BMP280;45905;50.570;10.428;2022-10-16T05:35:52;97833.38;;;15.70
61977;BMP280;45905;50.570;10.428;2022-10-16T05:38:19;97837.50;;;15.71
61977;BMP280;45905;50.570;10.428;2022-10-16T05:40:53;97846.13;;;15.70
61977;BMP280;45905;50.570;10.428;2022-10-16T05:43:20;97847.72;;;15.71
61977;BMP280;45905;50.570;10.428;2022-10-16T05:46:00;97848.31;;;15.73
61977;BMP280;45905;50.570;10.428;2022-10-16T05:48:29;97846.38;;;15.75
61977;BMP280;45905;50.570;10.428;2022-10-16T05:51:05;97849.91;;;15.74
61977;BMP280;45905;50.570;10.428;2022-10-16T05:53:35;97850.47;;;15.76
61977;BMP280;45905;50.570;10.428;2022-10-16T05:56:04;97850.47;;;15.76
61977;BMP280;45905;50.570;10.428;2022-10-16T05:58:35;97841.84;;;15.77
61977;BMP280;45905;50.570;10.428;2022-10-16T06:01:16;97844.63;;;15.75
61977;BMP280;45905;50.570;10.428;2022-10-16T06:03:44;97841.47;;;15.73
61977;BMP280;45905;50.570;10.428;2022-10-16T06:06:14;97848.31;;;15.73
61977;BMP280;45905;50.570;10.428;2022-10-16T06:08:43;97865.41;;;15.72
61977;BMP280;45905;50.570;10.428;2022-10-16T06:11:14;97858.72;;;15.71
61977;BMP280;45905;50.570;10.428;2022-10-16T06:13:42;97860.47;;;15.71
61977;BMP280;45905;50.570;10.428;2022-10-16T06:16:10;97864.81;;;15.70
61977;BMP280;45905;50.570;10.428;2022-10-16T06:18:38;97858.91;;;15.70
61977;BMP280;45905;50.570;10.428;2022-10-16T06:21:18;97861.09;;;15.73
61977;BMP280;45905;50.570;10.428;2022-10-16T06:23:46;97864.44;;;15.73
61977;BMP280;45905;50.570;10.428;2022-10-16T06:26:18;97867.78;;;15.74
61977;BMP280;45905;50.570;10.428;2022-10-16T06:28:47;97877.03;;;15.75
61977;BMP280;45905;50.570;10.428;2022-10-16T06:31:16;97870.16;;;15.75
61977;BMP280;45905;50.570;10.428;2022-10-16T06:33:43;97876.03;;;15.76
61977;BMP280;45905;50.570;10.428;2022-10-16T06:36:16;97870.16;;;15.75
61977;BMP280;45905;50.570;10.428;2022-10-16T06:38:44;97870.91;;;15.76
61977;BMP280;45905;50.570;10.428;2022-10-16T06:41:15;97878.97;;;15.73
61977;BMP280;45905;50.570;10.428;2022-10-16T06:43:43;97886.63;;;15.73
61977;BMP280;45905;50.570;10.428;2022-10-16T06:46:16;97894.91;;;15.75
61977;BMP280;45905;50.570;10.428;2022-10-16T06:48:43;97891.34;;;15.76
61977;BMP280;45905;50.570;10.428;2022-10-16T06:51:23;97890.59;;;15.75
61977;BMP280;45905;50.570;10.428;2022-10-16T06:53:53;97904.13;;;15.76
61977;BMP280;45905;50.570;10.428;2022-10-16T06:56:31;97909.03;;;15.77
61977;BMP280;45905;50.570;10.428;2022-10-16T06:58:59;97912.38;;;15.78
61977;BMP280;45905;50.570;10.428;2022-10-16T07:01:27;97905.50;;;15.78
61977;BMP280;45905;50.570;10.428;2022-10-16T07:03:54;97904.38;;;15.81
61977;BMP280;45905;50.570;10.428;2022-10-16T07:06:24;97910.25;;;15.81
61977;BMP280;45905;50.570;10.428;2022-10-16T07:08:51;97915.00;;;15.84
61977;BMP280;45905;50.570;10.428;2022-10-16T07:11:22;97921.47;;;15.86
61977;BMP280;45905;50.570;10.428;2022-10-16T07:13:51;97915.59;;;15.86
61977;BMP280;45905;50.570;10.428;2022-10-16T07:16:30;97924.66;;;15.88
61977;BMP280;45905;50.570;10.428;2022-10-16T07:19:00;97918.56;;;15.89
61977;BMP280;45905;50.570;10.428;2022-10-16T07:21:31;97919.34;;;15.90
61977;BMP280;45905;50.570;10.428;2022-10-16T07:24:05;97917.41;;;15.92
61977;BMP280;45905;50.570;10.428;2022-10-16T07:26:36;97911.13;;;15.94
61977;BMP280;45905;50.570;10.428;2022-10-16T07:29:03;97916.84;;;15.96
61977;BMP280;45905;50.570;10.428;2022-10-16T07:31:31;97929.28;;;15.99
61977;BMP280;45905;50.570;10.428;2022-10-16T07:33:59;97923.19;;;16.00
61977;BMP280;45905;50.570;10.428;2022-10-16T07:36:27;97939.88;;;16.03
61977;BMP280;45905;50.570;10.428;2022-10-16T07:38:54;97935.22;;;16.06
61977;BMP280;45905;50.570;10.428;2022-10-16T07:41:26;97948.59;;;16.08
61977;BMP280;45905;50.570;10.428;2022-10-16T07:43:54;97943.47;;;16.08
61977;BMP280;45905;50.570;10.428;2022-10-16T07:46:22;97952.72;;;16.09
61977;BMP280;45905;50.570;10.428;2022-10-16T07:48:50;97957.66;;;16.10
61977;BMP280;45905;50.570;10.428;2022-10-16T07:51:24;97960.97;;;16.11
61977;BMP280;45905;50.570;10.428;2022-10-16T07:53:52;97965.50;;;16.09
61977;BMP280;45905;50.570;10.428;2022-10-16T07:56:20;97962.94;;;16.09
61977;BMP280;45905;50.570;10.428;2022-10-16T07:58:49;97959.41;;;16.10
61977;BMP280;45905;50.570;10.428;2022-10-16T08:01:18;97964.53;;;16.10
61977;BMP280;45905;50.570;10.428;2022-10-16T08:03:48;97966.31;;;16.16
61977;BMP280;45905;50.570;10.428;2022-10-16T08:06:17;97967.72;;;16.18
61977;BMP280;45905;50.570;10.428;2022-10-16T08:08:49;97973.84;;;16.23
61977;BMP280;45905;50.570;10.428;2022-10-16T08:11:17;97975.06;;;16.27
61977;BMP280;45905;50.570;10.428;2022-10-16T08:13:44;97971.94;;;16.32
61977;BMP280;45905;50.570;10.428;2022-10-16T08:16:11;97969.97;;;16.34
61977;BMP280;45905;50.570;10.428;2022-10-16T08:18:40;97982.19;;;16.38
61977;BMP280;45905;50.570;10.428;2022-10-16T08:21:15;97993.19;;;16.39
61977;BMP280;45905;50.570;10.428;2022-10-16T08:23:47;97992.03;;;16.41
61977;BMP280;45905;50.570;10.428;2022-10-16T08:26:25;97984.38;;;16.41
61977;BMP280;45905;50.570;10.428;2022-10-16T08:28:54;97983.41;;;16.42
61977;BMP280;45905;50.570;10.428;2022-10-16T08:31:22;97997.56;;;16.44
61977;BMP280;45905;50.570;10.428;2022-10-16T08:33:50;97989.69;;;16.46
61977;BMP280;45905;50.570;10.428;2022-10-16T08:36:18;98002.09;;;16.49
61977;BMP280;45905;50.570;10.428;2022-10-16T08:38:48;98011.34;;;16.50
61977;BMP280;45905;50.570;10.428;2022-10-16T08:41:59;98010.03;;;16.54
61977;BMP280;45905;50.570;10.428;2022-10-16T08:44:49;98025.75;;;16.57
61977;BMP280;45905;50.570;10.428;2022-10-16T08:50:40;98009.84;;;16.61
61977;BMP280;45905;50.570;10.428;2022-10-16T08:53:17;98017.94;;;16.65
61977;BMP280;45905;50.570;10.428;2022-10-16T08:55:54;98010.69;;;16.68
61977;BMP280;45905;50.570;10.428;2022-10-16T08:58:27;98028.78;;;16.73
61977;BMP280;45905;50.570;10.428;2022-10-16T09:00:58;98021.72;;;16.75
61977;BMP280;45905;50.570;10.428;2022-10-16T09:04:36;98021.34;;;16.78
61977;BMP280;45905;50.570;10.428;2022-10-16T09:07:10;98029.63;;;16.80
61977;BMP280;45905;50.570;10.428;2022-10-16T09:10:04;98039.47;;;16.83
61977;BMP280;45905;50.570;10.428;2022-10-16T09:15:58;98046.19;;;16.90
61977;BMP280;45905;50.570;10.428;2022-10-16T09:21:30;98031.31;;;17.00
61977;BMP280;45905;50.570;10.428;2022-10-16T09:24:10;98036.84;;;17.03
61977;BMP280;45905;50.570;10.428;2022-10-16T09:26:38;98040.38;;;17.09
61977;BMP280;45905;50.570;10.428;2022-10-16T09:29:05;98035.69;;;17.12
61977;BMP280;45905;50.570;10.428;2022-10-16T09:31:36;98050.66;;;17.15
61977;BMP280;45905;50.570;10.428;2022-10-16T09:34:06;98039.25;;;17.18
61977;BMP280;45905;50.570;10.428;2022-10-16T09:36:45;98041.63;;;17.19
61977;BMP280;45905;50.570;10.428;2022-10-16T09:39:13;98043.19;;;17.20
61977;BMP280;45905;50.570;10.428;2022-10-16T09:41:44;98047.16;;;17.22
61977;BMP280;45905;50.570;10.428;2022-10-16T09:44:31;98047.94;;;17.23
61977;BMP280;45905;50.570;10.428;2022-10-16T09:47:25;98047.94;;;17.23
61977;BMP280;45905;50.570;10.428;2022-10-16T09:50:13;98053.84;;;17.23
61977;BMP280;45905;50.570;10.428;2022-10-16T09:52:46;98054.63;;;17.24
61977;BMP280;45905;50.570;10.428;2022-10-16T09:55:17;98062.31;;;17.24
61977;BMP280;45905;50.570;10.428;2022-10-16T09:57:52;98056.19;;;17.25
61977;BMP280;45905;50.570;10.428;2022-10-16T10:00:22;98063.69;;;17.26
61977;BMP280;45905;50.570;10.428;2022-10-16T10:02:50;98068.81;;;17.26
61977;BMP280;45905;50.570;10.428;2022-10-16T10:05:25;98076.31;;;17.28
61977;BMP280;45905;50.570;10.428;2022-10-16T10:08:03;98071.78;;;17.30
61977;BMP280;45905;50.570;10.428;2022-10-16T10:10:41;98071.97;;;17.28
61977;BMP280;45905;50.570;10.428;2022-10-16T10:13:35;98073.38;;;17.31
61977;BMP280;45905;50.570;10.428;2022-10-16T10:16:02;98074.75;;;17.33
61977;BMP280;45905;50.570;10.428;2022-10-16T10:18:29;98085.75;;;17.34
61977;BMP280;45905;50.570;10.428;2022-10-16T10:21:03;98079.28;;;17.38
61977;BMP280;45905;50.570;10.428;2022-10-16T10:23:32;98083.06;;;17.41
61977;BMP280;45905;50.570;10.428;2022-10-16T10:26:18;98083.44;;;17.45
61977;BMP280;45905;50.570;10.428;2022-10-16T10:29:45;98091.34;;;17.50
61977;BMP280;45905;50.570;10.428;2022-10-16T10:35:07;98098.66;;;17.59
61977;BMP280;45905;50.570;10.428;2022-10-16T10:38:30;98093.13;;;17.62
61977;BMP280;45905;50.570;10.428;2022-10-16T10:44:19;98083.13;;;17.67
61977;BMP280;45905;50.570;10.428;2022-10-16T10:47:19;98085.88;;;17.72
61977;BMP280;45905;50.570;10.428;2022-10-16T10:50:24;98085.50;;;17.75
61977;BMP280;45905;50.570;10.428;2022-10-16T10:58:42;98100.34;;;17.85
61977;BMP280;45905;50.570;10.428;2022-10-16T11:01:17;98103.66;;;17.86
61977;BMP280;45905;50.570;10.428;2022-10-16T11:07:20;98093.63;;;17.91
61977;BMP280;45905;50.570;10.428;2022-10-16T11:09:57;98097.16;;;17.96
61977;BMP280;45905;50.570;10.428;2022-10-16T11:12:49;98109.59;;;17.99
61977;BMP280;45905;50.570;10.428;2022-10-16T11:15:25;98106.06;;;18.00
61977;BMP280;45905;50.570;10.428;2022-10-16T11:18:08;98112.34;;;18.04
61977;BMP280;45905;50.570;10.428;2022-10-16T11:20:49;98105.06;;;18.07
61977;BMP280;45905;50.570;10.428;2022-10-16T11:23:28;98102.50;;;18.07
61977;BMP280;45905;50.570;10.428;2022-10-16T11:26:01;98100.56;;;18.09
61977;BMP280;45905;50.570;10.428;2022-10-16T11:28:45;98100.94;;;18.13
61977;BMP280;45905;50.570;10.428;2022-10-16T11:39:29;98101.53;;;18.14
61977;BMP280;45905;50.570;10.428;2022-10-16T11:42:24;98113.78;;;18.19
61977;BMP280;45905;50.570;10.428;2022-10-16T11:47:42;98111.03;;;18.20
61977;BMP280;45905;50.570;10.428;2022-10-16T11:50:47;98102.34;;;18.28
61977;BMP280;45905;50.570;10.428;2022-10-16T11:55:48;98108.06;;;18.36
61977;BMP280;45905;50.570;10.428;2022-10-16T11:59:01;98105.88;;;18.46
61977;BMP280;45905;50.570;10.428;2022-10-16T12:01:40;98100.53;;;18.53
61977;BMP280;45905;50.570;10.428;2022-10-16T12:04:43;98092.44;;;18.56
61977;BMP280;45905;50.570;10.428;2022-10-16T12:07:18;98093.78;;;18.65
61977;BMP280;45905;50.570;10.428;2022-10-16T12:09:46;98081.97;;;18.71
61977;BMP280;45905;50.570;10.428;2022-10-16T12:12:27;98081.16;;;18.83
61977;BMP280;45905;50.570;10.428;2022-10-16T12:15:32;98090.56;;;19.01
61977;BMP280;45905;50.570;10.428;2022-10-16T12:18:24;98079.88;;;19.17
61977;BMP280;45905;50.570;10.428;2022-10-16T12:20:59;98073.09;;;19.29
61977;BMP280;45905;50.570;10.428;2022-10-16T12:23:36;98074.06;;;19.34
61977;BMP280;45905;50.570;10.428;2022-10-16T12:26:05;98071.81;;;19.44
61977;BMP280;45905;50.570;10.428;2022-10-16T12:28:33;98074.97;;;19.52
61977;BMP280;45905;50.570;10.428;2022-10-16T12:31:05;98077.72;;;19.57
61977;BMP280;45905;50.570;10.428;2022-10-16T12:33:36;98083.44;;;19.59
61977;BMP280;45905;50.570;10.428;2022-10-16T12:36:15;98090.72;;;19.62
61977;BMP280;45905;50.570;10.428;2022-10-16T12:38:49;98080.69;;;19.60
61977;BMP280;45905;50.570;10.428;2022-10-16T12:41:35;98089.59;;;19.58
61977;BMP280;45905;50.570;10.428;2022-10-16T12:44:04;98084.81;;;19.55
61977;BMP280;45905;50.570;10.428;2022-10-16T12:46:39;98091.56;;;19.56
61977;BMP280;45905;50.570;10.428;2022-10-16T12:51:41;98081.09;;;19.57
61977;BMP280;45905;50.570;10.428;2022-10-16T12:54:23;98079.31;;;19.58
61977;BMP280;45905;50.570;10.428;2022-10-16T13:00:04;98079.88;;;19.60
61977;BMP280;45905;50.570;10.428;2022-10-16T13:23:13;98115.81;;;20.03
61977;BMP280;45905;50.570;10.428;2022-10-16T13:26:15;98116.16;;;20.06
61977;BMP280;45905;50.570;10.428;2022-10-16T13:28:45;98110.56;;;20.15
61977;BMP280;45905;50.570;10.428;2022-10-16T13:31:22;98108.31;;;20.25
61977;BMP280;45905;50.570;10.428;2022-10-16T13:33:57;98105.66;;;20.31
61977;BMP280;45905;50.570;10.428;2022-10-16T13:36:42;98112.81;;;20.36
61977;BMP280;45905;50.570;10.428;2022-10-16T13:39:15;98101.06;;;20.40
61977;BMP280;45905;50.570;10.428;2022-10-16T13:41:45;98104.03;;;20.43
61977;BMP280;45905;50.570;10.428;2022-10-16T13:44:19;98110.38;;;20.41
61977;BMP280;45905;50.570;10.428;2022-10-16T13:46:58;98110.59;;;20.39
61977;BMP280;45905;50.570;10.428;2022-10-16T13:49:26;98098.50;;;20.40
61977;BMP280;45905;50.570;10.428;2022-10-16T13:51:58;98095.38;;;20.38
61977;BMP280;45905;50.570;10.428;2022-10-16T13:54:27;98108.63;;;20.35
61977;BMP280;45905;50.570;10.428;2022-10-16T13:57:05;98107.69;;;20.29
61977;BMP280;45905;50.570;10.428;2022-10-16T13:59:53;98109.88;;;20.26
61977;BMP280;45905;50.570;10.428;2022-10-16T14:02:39;98123.63;;;20.14
61977;BMP280;45905;50.570;10.428;2022-10-16T14:05:09;98124.44;;;20.08
61977;BMP280;45905;50.570;10.428;2022-10-16T14:07:41;98136.53;;;20.07
61977;BMP280;45905;50.570;10.428;2022-10-16T14:10:41;98138.09;;;20.08
61977;BMP280;45905;50.570;10.428;2022-10-16T14:13:20;98144.25;;;20.07
61977;BMP280;45905;50.570;10.428;2022-10-16T14:15:51;98142.88;;;20.05
61977;BMP280;45905;50.570;10.428;2022-10-16T14:18:23;98144.66;;;20.05
61977;BMP280;45905;50.570;10.428;2022-10-16T14:20:51;98151.81;;;20.03
61977;BMP280;45905;50.570;10.428;2022-10-16T14:23:44;98167.63;;;20.00
61977;BMP280;45905;50.570;10.428;2022-10-16T14:28:41;98169.25;;;19.94
61977;BMP280;45905;50.570;10.428;2022-10-16T14:31:29;98168.47;;;19.94
61977;BMP280;45905;50.570;10.428;2022-10-16T14:33:57;98164.31;;;19.93
61977;BMP280;45905;50.570;10.428;2022-10-16T14:36:27;98160.16;;;19.92
61977;BMP280;45905;50.570;10.428;2022-10-16T14:39:03;98160.38;;;19.90
61977;BMP280;45905;50.570;10.428;2022-10-16T14:41:40;98157.00;;;19.90
61977;BMP280;45905;50.570;10.428;2022-10-16T14:44:11;98148.31;;;19.91
61977;BMP280;45905;50.570;10.428;2022-10-16T14:46:44;98144.75;;;19.92
61977;BMP280;45905;50.570;10.428;2022-10-16T14:49:14;98138.59;;;19.93
61977;BMP280;45905;50.570;10.428;2022-10-16T14:51:42;98140.19;;;19.94
61977;BMP280;45905;50.570;10.428;2022-10-16T14:54:17;98156.22;;;19.96
61977;BMP280;45905;50.570;10.428;2022-10-16T14:56:56;98159.91;;;20.00
61977;BMP280;45905;50.570;10.428;2022-10-16T14:59:34;98168.44;;;20.00
61977;BMP280;45905;50.570;10.428;2022-10-16T15:04:55;98170.78;;;20.02
61977;BMP280;45905;50.570;10.428;2022-10-16T15:07:23;98179.09;;;20.04
61977;BMP280;45905;50.570;10.428;2022-10-16T15:09:51;98177.09;;;20.06
61977;BMP280;45905;50.570;10.428;2022-10-16T15:12:18;98180.25;;;20.07
61977;BMP280;45905;50.570;10.428;2022-10-16T15:14:45;98180.03;;;20.09
61977;BMP280;45905;50.570;10.428;2022-10-16T15:17:12;98173.53;;;20.06
61977;BMP280;45905;50.570;10.428;2022-10-16T15:19:43;98184.81;;;20.06
61977;BMP280;45905;50.570;10.428;2022-10-16T15:22:11;98183.03;;;20.06
61977;BMP280;45905;50.570;10.428;2022-10-16T15:24:39;98180.66;;;20.05
61977;BMP280;45905;50.570;10.428;2022-10-16T15:27:06;98181.88;;;20.02
61977;BMP280;45905;50.570;10.428;2022-10-16T15:29:33;98176.34;;;19.99
61977;BMP280;45905;50.570;10.428;2022-10-16T15:32:00;98174.75;;;19.98
61977;BMP280;45905;50.570;10.428;2022-10-16T15:34:27;98175.97;;;19.95
61977;BMP280;45905;50.570;10.428;2022-10-16T15:36:54;98180.75;;;19.92
61977;BMP280;45905;50.570;10.428;2022-10-16T15:39:24;98177.22;;;19.87
61977;BMP280;45905;50.570;10.428;2022-10-16T15:41:51;98184.53;;;19.83
61977;BMP280;45905;50.570;10.428;2022-10-16T15:44:21;98183.16;;;19.81
61977;BMP280;45905;50.570;10.428;2022-10-16T15:46:50;98190.72;;;19.76
61977;BMP280;45905;50.570;10.428;2022-10-16T15:49:17;98189.53;;;19.72